Convoy, Ohio
Current Conditions -  °F | °C
As of 3:54 AM on Friday 19 Dec 2014 (Local Time) from KFWA Reporting Station
Overcast Overcast  
Wind Chill: 17°   Ceiling: 2900
Heat Index: 27°   Visibility: 7mi
Dew Point: 22°   Wind: 10mph
Humidity: 81%   Direction: 270°W
Pressure: 30.24"   Gusts: NA
Location:  40.92°N, 84.7°W
Report Text: KFWA 190854Z 27009KT 7SM OVC029 M03/M06 A3024 RMK AO2 SLP250 T10281056 50003
Loading
Personal Weather Stations






























Interactive Weather Map New forecast layout! Learn more

10-Day Weather Forecast

Advertisements
Track Severe Weather on mobile